sensor_id;sensor_type;location;lat;lon;timestamp;temperature;humidity
12164;DHT22;6145;50.192;10.064;2022-08-27T00:01:12;22.70;70.90
12164;DHT22;6145;50.192;10.064;2022-08-27T00:03:41;22.70;70.70
12164;DHT22;6145;50.192;10.064;2022-08-27T00:06:08;22.60;71.20
12164;DHT22;6145;50.192;10.064;2022-08-27T00:08:36;22.60;71.00
12164;DHT22;6145;50.192;10.064;2022-08-27T00:11:05;22.60;71.00
12164;DHT22;6145;50.192;10.064;2022-08-27T00:13:31;22.60;70.80
12164;DHT22;6145;50.192;10.064;2022-08-27T00:15:58;22.60;70.60
12164;DHT22;6145;50.192;10.064;2022-08-27T00:18:25;22.60;70.50
12164;DHT22;6145;50.192;10.064;2022-08-27T00:20:52;22.60;70.40
12164;DHT22;6145;50.192;10.064;2022-08-27T00:23:18;22.60;70.40
12164;DHT22;6145;50.192;10.064;2022-08-27T00:25:45;22.60;70.30
12164;DHT22;6145;50.192;10.064;2022-08-27T00:28:13;22.60;70.20
12164;DHT22;6145;50.192;10.064;2022-08-27T00:30:40;22.60;70.10
12164;DHT22;6145;50.192;10.064;2022-08-27T00:33:08;22.60;70.10
12164;DHT22;6145;50.192;10.064;2022-08-27T00:35:35;22.60;70.10
12164;DHT22;6145;50.192;10.064;2022-08-27T00:38:02;22.80;70.20
12164;DHT22;6145;50.192;10.064;2022-08-27T00:40:30;22.50;69.90
12164;DHT22;6145;50.192;10.064;2022-08-27T00:42:58;22.70;70.00
12164;DHT22;6145;50.192;10.064;2022-08-27T00:45:32;22.70;70.00
12164;DHT22;6145;50.192;10.064;2022-08-27T00:48:03;22.60;69.80
12164;DHT22;6145;50.192;10.064;2022-08-27T00:50:34;22.60;69.80
12164;DHT22;6145;50.192;10.064;2022-08-27T00:53:04;22.60;69.80
12164;DHT22;6145;50.192;10.064;2022-08-27T00:55:34;22.60;69.80
12164;DHT22;6145;50.192;10.064;2022-08-27T00:58:08;22.70;69.80
12164;DHT22;6145;50.192;10.064;2022-08-27T01:00:37;22.60;69.70
12164;DHT22;6145;50.192;10.064;2022-08-27T01:03:05;22.50;69.70
12164;DHT22;6145;50.192;10.064;2022-08-27T01:05:33;22.50;69.60
12164;DHT22;6145;50.192;10.064;2022-08-27T01:08:03;22.50;69.60
12164;DHT22;6145;50.192;10.064;2022-08-27T01:10:32;22.50;69.60
12164;DHT22;6145;50.192;10.064;2022-08-27T01:12:59;22.50;69.70
12164;DHT22;6145;50.192;10.064;2022-08-27T01:15:27;22.40;69.60
12164;DHT22;6145;50.192;10.064;2022-08-27T01:17:56;22.40;70.30
12164;DHT22;6145;50.192;10.064;2022-08-27T01:20:26;22.40;69.70
12164;DHT22;6145;50.192;10.064;2022-08-27T01:22:59;22.40;69.60
12164;DHT22;6145;50.192;10.064;2022-08-27T01:25:30;22.40;69.70
12164;DHT22;6145;50.192;10.064;2022-08-27T01:27:59;22.30;69.70
12164;DHT22;6145;50.192;10.064;2022-08-27T01:30:26;22.30;69.70
12164;DHT22;6145;50.192;10.064;2022-08-27T01:32:53;22.30;69.70
12164;DHT22;6145;50.192;10.064;2022-08-27T01:35:21;22.30;69.70
12164;DHT22;6145;50.192;10.064;2022-08-27T01:37:50;22.20;69.60
12164;DHT22;6145;50.192;10.064;2022-08-27T01:40:17;22.40;69.70
12164;DHT22;6145;50.192;10.064;2022-08-27T01:42:48;22.30;69.60
12164;DHT22;6145;50.192;10.064;2022-08-27T01:45:18;22.20;69.40
12164;DHT22;6145;50.192;10.064;2022-08-27T01:47:45;22.20;69.60
12164;DHT22;6145;50.192;10.064;2022-08-27T01:50:14;22.20;69.80
12164;DHT22;6145;50.192;10.064;2022-08-27T01:52:42;22.20;70.00
12164;DHT22;6145;50.192;10.064;2022-08-27T01:55:11;22.10;69.90
12164;DHT22;6145;50.192;10.064;2022-08-27T01:57:38;22.10;70.60
12164;DHT22;6145;50.192;10.064;2022-08-27T02:00:10;22.00;70.20
12164;DHT22;6145;50.192;10.064;2022-08-27T02:02:37;22.10;70.40
12164;DHT22;6145;50.192;10.064;2022-08-27T02:05:04;22.10;70.30
12164;DHT22;6145;50.192;10.064;2022-08-27T02:07:31;22.00;70.10
12164;DHT22;6145;50.192;10.064;2022-08-27T02:09:58;22.00;69.90
12164;DHT22;6145;50.192;10.064;2022-08-27T02:12:25;22.00;69.90
12164;DHT22;6145;50.192;10.064;2022-08-27T02:14:52;22.00;69.80
12164;DHT22;6145;50.192;10.064;2022-08-27T02:17:20;22.00;69.80
12164;DHT22;6145;50.192;10.064;2022-08-27T02:19:46;22.00;69.80
12164;DHT22;6145;50.192;10.064;2022-08-27T02:22:13;22.00;69.70
12164;DHT22;6145;50.192;10.064;2022-08-27T02:24:41;22.00;69.70
12164;DHT22;6145;50.192;10.064;2022-08-27T02:27:08;21.90;69.60
12164;DHT22;6145;50.192;10.064;2022-08-27T02:29:35;21.90;69.60
12164;DHT22;6145;50.192;10.064;2022-08-27T02:32:02;21.90;69.60
12164;DHT22;6145;50.192;10.064;2022-08-27T02:34:30;21.90;69.60
12164;DHT22;6145;50.192;10.064;2022-08-27T02:36:57;21.90;69.50
12164;DHT22;6145;50.192;10.064;2022-08-27T02:39:24;21.90;69.50
12164;DHT22;6145;50.192;10.064;2022-08-27T02:41:51;21.90;69.50
12164;DHT22;6145;50.192;10.064;2022-08-27T02:44:17;21.80;69.50
12164;DHT22;6145;50.192;10.064;2022-08-27T02:46:44;21.80;69.40
12164;DHT22;6145;50.192;10.064;2022-08-27T02:49:11;21.80;69.40
12164;DHT22;6145;50.192;10.064;2022-08-27T02:51:39;21.80;69.40
12164;DHT22;6145;50.192;10.064;2022-08-27T02:54:06;21.80;69.60
12164;DHT22;6145;50.192;10.064;2022-08-27T02:56:33;21.80;69.60
12164;DHT22;6145;50.192;10.064;2022-08-27T02:58:59;21.80;69.60
12164;DHT22;6145;50.192;10.064;2022-08-27T03:01:26;21.80;69.50
12164;DHT22;6145;50.192;10.064;2022-08-27T03:03:53;21.80;69.50
12164;DHT22;6145;50.192;10.064;2022-08-27T03:06:20;21.80;69.40
12164;DHT22;6145;50.192;10.064;2022-08-27T03:08:48;21.90;69.60
12164;DHT22;6145;50.192;10.064;2022-08-27T03:11:15;21.60;69.30
12164;DHT22;6145;50.192;10.064;2022-08-27T03:13:41;21.70;69.50
12164;DHT22;6145;50.192;10.064;2022-08-27T03:16:08;21.70;69.40
12164;DHT22;6145;50.192;10.064;2022-08-27T03:18:35;21.70;69.60
12164;DHT22;6145;50.192;10.064;2022-08-27T03:21:01;21.60;69.70
12164;DHT22;6145;50.192;10.064;2022-08-27T03:23:30;21.60;69.80
12164;DHT22;6145;50.192;10.064;2022-08-27T03:26:01;21.60;69.90
12164;DHT22;6145;50.192;10.064;2022-08-27T03:28:31;21.70;70.00
12164;DHT22;6145;50.192;10.064;2022-08-27T03:31:00;21.60;70.00
12164;DHT22;6145;50.192;10.064;2022-08-27T03:33:28;21.60;70.00
12164;DHT22;6145;50.192;10.064;2022-08-27T03:35:55;21.60;70.20
12164;DHT22;6145;50.192;10.064;2022-08-27T03:38:23;21.60;70.20
12164;DHT22;6145;50.192;10.064;2022-08-27T03:40:51;21.60;70.90
12164;DHT22;6145;50.192;10.064;2022-08-27T03:43:20;21.60;70.40
12164;DHT22;6145;50.192;10.064;2022-08-27T03:45:48;21.60;70.40
12164;DHT22;6145;50.192;10.064;2022-08-27T03:48:16;21.50;70.30
12164;DHT22;6145;50.192;10.064;2022-08-27T03:50:45;21.50;70.40
12164;DHT22;6145;50.192;10.064;2022-08-27T03:53:13;21.50;70.30
12164;DHT22;6145;50.192;10.064;2022-08-27T03:55:40;21.50;70.40
12164;DHT22;6145;50.192;10.064;2022-08-27T03:58:07;21.50;70.40
12164;DHT22;6145;50.192;10.064;2022-08-27T04:00:35;21.50;70.40
12164;DHT22;6145;50.192;10.064;2022-08-27T04:03:02;21.50;70.50
12164;DHT22;6145;50.192;10.064;2022-08-27T04:05:30;21.50;70.60
12164;DHT22;6145;50.192;10.064;2022-08-27T04:07:57;21.50;70.90
12164;DHT22;6145;50.192;10.064;2022-08-27T04:10:25;21.50;70.90
12164;DHT22;6145;50.192;10.064;2022-08-27T04:12:53;21.50;70.80
12164;DHT22;6145;50.192;10.064;2022-08-27T04:15:19;21.50;71.00
12164;DHT22;6145;50.192;10.064;2022-08-27T04:17:47;21.50;71.10
12164;DHT22;6145;50.192;10.064;2022-08-27T04:20:15;21.50;71.00
12164;DHT22;6145;50.192;10.064;2022-08-27T04:22:42;21.50;71.00
12164;DHT22;6145;50.192;10.064;2022-08-27T04:25:09;21.60;71.10
12164;DHT22;6145;50.192;10.064;2022-08-27T04:27:36;21.50;71.00
12164;DHT22;6145;50.192;10.064;2022-08-27T04:30:04;21.50;71.10
12164;DHT22;6145;50.192;10.064;2022-08-27T04:32:31;21.50;71.00
12164;DHT22;6145;50.192;10.064;2022-08-27T04:34:59;21.50;71.10
12164;DHT22;6145;50.192;10.064;2022-08-27T04:37:28;21.50;71.10
12164;DHT22;6145;50.192;10.064;2022-08-27T04:39:56;21.50;71.30
12164;DHT22;6145;50.192;10.064;2022-08-27T04:42:22;21.50;71.70
12164;DHT22;6145;50.192;10.064;2022-08-27T04:44:49;21.50;72.40
12164;DHT22;6145;50.192;10.064;2022-08-27T04:47:18;21.50;72.80
12164;DHT22;6145;50.192;10.064;2022-08-27T04:49:45;21.50;73.30
12164;DHT22;6145;50.192;10.064;2022-08-27T04:52:14;21.40;73.30
12164;DHT22;6145;50.192;10.064;2022-08-27T04:54:40;21.40;73.30
12164;DHT22;6145;50.192;10.064;2022-08-27T04:57:08;21.40;73.20
12164;DHT22;6145;50.192;10.064;2022-08-27T04:59:35;21.40;73.20
12164;DHT22;6145;50.192;10.064;2022-08-27T05:02:05;21.40;73.00
12164;DHT22;6145;50.192;10.064;2022-08-27T05:04:34;21.40;72.80
12164;DHT22;6145;50.192;10.064;2022-08-27T05:07:02;21.40;72.70
12164;DHT22;6145;50.192;10.064;2022-08-27T05:09:30;21.40;72.60
12164;DHT22;6145;50.192;10.064;2022-08-27T05:11:58;21.40;72.50
12164;DHT22;6145;50.192;10.064;2022-08-27T05:14:26;21.40;72.40
12164;DHT22;6145;50.192;10.064;2022-08-27T05:16:55;21.40;72.40
12164;DHT22;6145;50.192;10.064;2022-08-27T05:19:22;21.50;72.50
12164;DHT22;6145;50.192;10.064;2022-08-27T05:21:50;21.50;72.60
12164;DHT22;6145;50.192;10.064;2022-08-27T05:24:18;21.50;72.60
12164;DHT22;6145;50.192;10.064;2022-08-27T05:26:47;21.50;72.50
12164;DHT22;6145;50.192;10.064;2022-08-27T05:29:15;21.60;72.60
12164;DHT22;6145;50.192;10.064;2022-08-27T05:31:42;21.50;72.60
12164;DHT22;6145;50.192;10.064;2022-08-27T05:34:09;21.50;73.00
12164;DHT22;6145;50.192;10.064;2022-08-27T05:36:37;21.50;72.90
12164;DHT22;6145;50.192;10.064;2022-08-27T05:39:05;21.50;73.20
12164;DHT22;6145;50.192;10.064;2022-08-27T05:41:33;21.50;73.40
12164;DHT22;6145;50.192;10.064;2022-08-27T05:44:04;21.50;74.10
12164;DHT22;6145;50.192;10.064;2022-08-27T05:46:31;21.50;74.30
12164;DHT22;6145;50.192;10.064;2022-08-27T05:48:59;21.40;74.10
12164;DHT22;6145;50.192;10.064;2022-08-27T05:51:28;21.50;74.00
12164;DHT22;6145;50.192;10.064;2022-08-27T05:53:57;21.50;74.50
12164;DHT22;6145;50.192;10.064;2022-08-27T05:56:27;21.40;74.80
12164;DHT22;6145;50.192;10.064;2022-08-27T05:58:55;21.50;75.10
12164;DHT22;6145;50.192;10.064;2022-08-27T06:01:42;21.40;74.80
12164;DHT22;6145;50.192;10.064;2022-08-27T06:04:11;21.50;75.10
12164;DHT22;6145;50.192;10.064;2022-08-27T06:06:39;21.40;74.70
12164;DHT22;6145;50.192;10.064;2022-08-27T06:09:08;21.50;75.10
12164;DHT22;6145;50.192;10.064;2022-08-27T06:11:53;21.50;74.90
12164;DHT22;6145;50.192;10.064;2022-08-27T06:14:57;21.50;74.60
12164;DHT22;6145;50.192;10.064;2022-08-27T06:17:25;21.60;74.50
12164;DHT22;6145;50.192;10.064;2022-08-27T06:19:52;21.50;74.30
12164;DHT22;6145;50.192;10.064;2022-08-27T06:22:18;21.50;74.10
12164;DHT22;6145;50.192;10.064;2022-08-27T06:24:46;21.60;74.20
12164;DHT22;6145;50.192;10.064;2022-08-27T06:27:16;21.60;74.00
12164;DHT22;6145;50.192;10.064;2022-08-27T06:29:44;21.60;73.90
12164;DHT22;6145;50.192;10.064;2022-08-27T06:32:12;21.60;73.80
12164;DHT22;6145;50.192;10.064;2022-08-27T06:34:41;21.60;73.80
12164;DHT22;6145;50.192;10.064;2022-08-27T06:37:07;21.60;73.80
12164;DHT22;6145;50.192;10.064;2022-08-27T06:39:35;21.60;73.80
12164;DHT22;6145;50.192;10.064;2022-08-27T06:42:04;21.70;74.00
12164;DHT22;6145;50.192;10.064;2022-08-27T06:44:31;21.70;73.90
12164;DHT22;6145;50.192;10.064;2022-08-27T06:46:58;21.70;74.00
12164;DHT22;6145;50.192;10.064;2022-08-27T06:49:25;21.70;73.90
12164;DHT22;6145;50.192;10.064;2022-08-27T06:51:53;21.80;74.00
12164;DHT22;6145;50.192;10.064;2022-08-27T06:54:20;21.80;74.50
12164;DHT22;6145;50.192;10.064;2022-08-27T06:56:46;21.90;75.10
12164;DHT22;6145;50.192;10.064;2022-08-27T06:59:15;21.90;75.40
12164;DHT22;6145;50.192;10.064;2022-08-27T07:01:47;22.00;75.90
12164;DHT22;6145;50.192;10.064;2022-08-27T07:04:18;22.00;76.00
12164;DHT22;6145;50.192;10.064;2022-08-27T07:06:45;22.10;76.20
12164;DHT22;6145;50.192;10.064;2022-08-27T07:09:14;22.10;76.20
12164;DHT22;6145;50.192;10.064;2022-08-27T07:11:41;22.20;76.50
12164;DHT22;6145;50.192;10.064;2022-08-27T07:14:08;22.20;76.50
12164;DHT22;6145;50.192;10.064;2022-08-27T07:16:35;22.20;76.60
12164;DHT22;6145;50.192;10.064;2022-08-27T07:19:04;22.30;76.70
12164;DHT22;6145;50.192;10.064;2022-08-27T07:21:31;22.30;76.70
12164;DHT22;6145;50.192;10.064;2022-08-27T07:24:00;22.30;76.60
12164;DHT22;6145;50.192;10.064;2022-08-27T07:26:31;22.40;76.70
12164;DHT22;6145;50.192;10.064;2022-08-27T07:28:59;22.50;76.60
12164;DHT22;6145;50.192;10.064;2022-08-27T07:31:27;22.50;76.50
12164;DHT22;6145;50.192;10.064;2022-08-27T07:33:54;22.50;76.20
12164;DHT22;6145;50.192;10.064;2022-08-27T07:36:22;22.60;76.10
12164;DHT22;6145;50.192;10.064;2022-08-27T07:38:50;22.60;76.00
12164;DHT22;6145;50.192;10.064;2022-08-27T07:41:17;22.60;75.90
12164;DHT22;6145;50.192;10.064;2022-08-27T07:43:45;22.70;75.80
12164;DHT22;6145;50.192;10.064;2022-08-27T07:46:29;22.70;75.70
12164;DHT22;6145;50.192;10.064;2022-08-27T07:48:56;22.70;75.60
12164;DHT22;6145;50.192;10.064;2022-08-27T07:51:25;22.80;75.60
12164;DHT22;6145;50.192;10.064;2022-08-27T07:53:52;22.80;75.40
12164;DHT22;6145;50.192;10.064;2022-08-27T07:56:20;22.80;75.30
12164;DHT22;6145;50.192;10.064;2022-08-27T07:58:49;22.80;75.10
12164;DHT22;6145;50.192;10.064;2022-08-27T08:01:17;22.90;75.20
12164;DHT22;6145;50.192;10.064;2022-08-27T08:03:44;22.90;75.10
12164;DHT22;6145;50.192;10.064;2022-08-27T08:06:13;22.90;74.90
12164;DHT22;6145;50.192;10.064;2022-08-27T08:08:40;22.90;74.90
12164;DHT22;6145;50.192;10.064;2022-08-27T08:11:08;23.00;75.00
12164;DHT22;6145;50.192;10.064;2022-08-27T08:13:36;23.00;74.90
12164;DHT22;6145;50.192;10.064;2022-08-27T08:16:05;23.00;74.80
12164;DHT22;6145;50.192;10.064;2022-08-27T08:18:32;23.00;74.70
12164;DHT22;6145;50.192;10.064;2022-08-27T08:21:00;23.10;74.70
12164;DHT22;6145;50.192;10.064;2022-08-27T08:23:27;23.10;74.60
12164;DHT22;6145;50.192;10.064;2022-08-27T08:25:55;23.10;74.40
12164;DHT22;6145;50.192;10.064;2022-08-27T08:28:23;23.10;74.20
12164;DHT22;6145;50.192;10.064;2022-08-27T08:30:50;23.20;74.30
12164;DHT22;6145;50.192;10.064;2022-08-27T08:33:18;23.20;74.00
12164;DHT22;6145;50.192;10.064;2022-08-27T08:35:45;23.20;73.80
12164;DHT22;6145;50.192;10.064;2022-08-27T08:38:13;23.20;74.20
12164;DHT22;6145;50.192;10.064;2022-08-27T08:40:43;23.40;73.60
12164;DHT22;6145;50.192;10.064;2022-08-27T08:43:20;23.30;73.40
12164;DHT22;6145;50.192;10.064;2022-08-27T08:45:50;23.30;73.40
12164;DHT22;6145;50.192;10.064;2022-08-27T08:48:21;23.30;73.30
12164;DHT22;6145;50.192;10.064;2022-08-27T08:50:54;23.30;73.00
12164;DHT22;6145;50.192;10.064;2022-08-27T08:53:34;23.40;72.80
12164;DHT22;6145;50.192;10.064;2022-08-27T08:56:06;23.40;72.60
12164;DHT22;6145;50.192;10.064;2022-08-27T08:58:38;23.40;72.50
12164;DHT22;6145;50.192;10.064;2022-08-27T09:01:08;23.50;72.40
12164;DHT22;6145;50.192;10.064;2022-08-27T09:03:39;23.60;72.50
12164;DHT22;6145;50.192;10.064;2022-08-27T09:06:09;23.60;72.30
12164;DHT22;6145;50.192;10.064;2022-08-27T09:08:41;23.60;72.10
12164;DHT22;6145;50.192;10.064;2022-08-27T09:11:17;23.70;72.20
12164;DHT22;6145;50.192;10.064;2022-08-27T09:13:48;23.80;72.00
12164;DHT22;6145;50.192;10.064;2022-08-27T09:16:15;23.80;71.90
12164;DHT22;6145;50.192;10.064;2022-08-27T09:18:43;23.90;71.70
12164;DHT22;6145;50.192;10.064;2022-08-27T09:21:19;24.00;71.40
12164;DHT22;6145;50.192;10.064;2022-08-27T09:23:55;24.10;71.10
12164;DHT22;6145;50.192;10.064;2022-08-27T09:26:25;24.10;70.70
12164;DHT22;6145;50.192;10.064;2022-08-27T09:28:56;24.20;70.60
12164;DHT22;6145;50.192;10.064;2022-08-27T09:31:46;24.30;70.30
12164;DHT22;6145;50.192;10.064;2022-08-27T09:34:14;24.40;69.90
12164;DHT22;6145;50.192;10.064;2022-08-27T09:36:53;24.40;69.80
12164;DHT22;6145;50.192;10.064;2022-08-27T09:39:35;24.50;69.40
12164;DHT22;6145;50.192;10.064;2022-08-27T09:42:07;24.50;69.00
12164;DHT22;6145;50.192;10.064;2022-08-27T09:44:44;24.60;69.00
12164;DHT22;6145;50.192;10.064;2022-08-27T09:47:12;24.70;68.70
12164;DHT22;6145;50.192;10.064;2022-08-27T09:49:41;24.70;68.50
12164;DHT22;6145;50.192;10.064;2022-08-27T09:52:10;24.80;68.40
12164;DHT22;6145;50.192;10.064;2022-08-27T09:54:51;24.80;68.10
12164;DHT22;6145;50.192;10.064;2022-08-27T09:57:31;24.80;68.00
12164;DHT22;6145;50.192;10.064;2022-08-27T09:59:59;24.90;68.50
12164;DHT22;6145;50.192;10.064;2022-08-27T10:02:27;25.00;68.10
12164;DHT22;6145;50.192;10.064;2022-08-27T10:04:56;25.10;67.70
12164;DHT22;6145;50.192;10.064;2022-08-27T10:07:38;25.20;67.50
12164;DHT22;6145;50.192;10.064;2022-08-27T10:10:10;25.40;67.00
12164;DHT22;6145;50.192;10.064;2022-08-27T10:12:48;25.40;66.50
12164;DHT22;6145;50.192;10.064;2022-08-27T10:15:17;25.50;66.00
12164;DHT22;6145;50.192;10.064;2022-08-27T10:17:51;25.60;65.70
12164;DHT22;6145;50.192;10.064;2022-08-27T10:20:26;25.70;65.30
12164;DHT22;6145;50.192;10.064;2022-08-27T10:23:04;25.80;64.80
12164;DHT22;6145;50.192;10.064;2022-08-27T10:25:39;25.90;64.50
12164;DHT22;6145;50.192;10.064;2022-08-27T10:28:21;25.90;64.00
12164;DHT22;6145;50.192;10.064;2022-08-27T10:31:02;25.90;63.70
12164;DHT22;6145;50.192;10.064;2022-08-27T10:33:38;26.00;63.50
12164;DHT22;6145;50.192;10.064;2022-08-27T10:36:17;26.00;63.20
12164;DHT22;6145;50.192;10.064;2022-08-27T10:38:52;26.00;63.00
12164;DHT22;6145;50.192;10.064;2022-08-27T10:41:25;26.10;62.90
12164;DHT22;6145;50.192;10.064;2022-08-27T10:44:25;26.10;62.80
12164;DHT22;6145;50.192;10.064;2022-08-27T10:47:05;26.10;62.60
12164;DHT22;6145;50.192;10.064;2022-08-27T10:49:40;26.10;62.40
12164;DHT22;6145;50.192;10.064;2022-08-27T10:52:16;26.10;62.10
12164;DHT22;6145;50.192;10.064;2022-08-27T10:54:50;26.10;61.80
12164;DHT22;6145;50.192;10.064;2022-08-27T10:57:22;26.10;61.50
12164;DHT22;6145;50.192;10.064;2022-08-27T10:59:57;26.10;61.40
12164;DHT22;6145;50.192;10.064;2022-08-27T11:02:31;26.10;60.80
12164;DHT22;6145;50.192;10.064;2022-08-27T11:05:04;26.10;60.70
12164;DHT22;6145;50.192;10.064;2022-08-27T11:07:35;26.10;60.60
12164;DHT22;6145;50.192;10.064;2022-08-27T11:10:06;26.00;60.40
12164;DHT22;6145;50.192;10.064;2022-08-27T11:12:36;26.10;60.30
12164;DHT22;6145;50.192;10.064;2022-08-27T11:15:08;26.10;60.00
12164;DHT22;6145;50.192;10.064;2022-08-27T11:17:41;26.20;60.00
12164;DHT22;6145;50.192;10.064;2022-08-27T11:20:15;26.20;60.00
12164;DHT22;6145;50.192;10.064;2022-08-27T11:22:48;26.20;59.90
12164;DHT22;6145;50.192;10.064;2022-08-27T11:25:30;26.30;60.00
12164;DHT22;6145;50.192;10.064;2022-08-27T11:27:58;26.30;59.80
12164;DHT22;6145;50.192;10.064;2022-08-27T11:30:28;26.30;59.90
12164;DHT22;6145;50.192;10.064;2022-08-27T11:33:01;26.30;59.70
12164;DHT22;6145;50.192;10.064;2022-08-27T11:35:34;26.30;59.50
12164;DHT22;6145;50.192;10.064;2022-08-27T11:38:35;26.30;59.50
12164;DHT22;6145;50.192;10.064;2022-08-27T11:44:07;26.40;58.90
12164;DHT22;6145;50.192;10.064;2022-08-27T11:46:42;26.40;59.20
12164;DHT22;6145;50.192;10.064;2022-08-27T11:49:09;26.40;59.10
12164;DHT22;6145;50.192;10.064;2022-08-27T11:51:38;26.40;58.90
12164;DHT22;6145;50.192;10.064;2022-08-27T11:54:09;26.50;59.00
12164;DHT22;6145;50.192;10.064;2022-08-27T11:56:39;26.50;59.00
12164;DHT22;6145;50.192;10.064;2022-08-27T11:59:17;26.50;58.80
12164;DHT22;6145;50.192;10.064;2022-08-27T12:01:45;26.50;59.00
12164;DHT22;6145;50.192;10.064;2022-08-27T12:04:22;26.50;59.00
12164;DHT22;6145;50.192;10.064;2022-08-27T12:06:51;26.50;59.00
12164;DHT22;6145;50.192;10.064;2022-08-27T12:09:21;26.50;59.00
12164;DHT22;6145;50.192;10.064;2022-08-27T12:11:58;26.50;58.90
12164;DHT22;6145;50.192;10.064;2022-08-27T12:14:46;26.50;58.70
12164;DHT22;6145;50.192;10.064;2022-08-27T12:17:21;26.50;58.80
12164;DHT22;6145;50.192;10.064;2022-08-27T12:20:00;26.60;58.70
12164;DHT22;6145;50.192;10.064;2022-08-27T12:22:43;26.50;58.70
12164;DHT22;6145;50.192;10.064;2022-08-27T12:25:31;26.50;58.60
12164;DHT22;6145;50.192;10.064;2022-08-27T12:28:01;26.50;58.70
12164;DHT22;6145;50.192;10.064;2022-08-27T12:30:31;26.60;58.80
12164;DHT22;6145;50.192;10.064;2022-08-27T12:33:07;26.60;58.80
12164;DHT22;6145;50.192;10.064;2022-08-27T12:35:42;26.60;58.80
12164;DHT22;6145;50.192;10.064;2022-08-27T12:38:13;26.60;58.80
12164;DHT22;6145;50.192;10.064;2022-08-27T12:40:47;26.70;58.80
12164;DHT22;6145;50.192;10.064;2022-08-27T12:43:18;26.60;58.60
12164;DHT22;6145;50.192;10.064;2022-08-27T12:45:47;26.60;58.70
12164;DHT22;6145;50.192;10.064;2022-08-27T12:48:18;26.70;58.70
12164;DHT22;6145;50.192;10.064;2022-08-27T12:50:51;26.70;58.70
12164;DHT22;6145;50.192;10.064;2022-08-27T12:53:31;26.70;58.70
12164;DHT22;6145;50.192;10.064;2022-08-27T12:56:20;26.70;58.70
12164;DHT22;6145;50.192;10.064;2022-08-27T12:58:54;26.70;58.50
12164;DHT22;6145;50.192;10.064;2022-08-27T13:01:33;26.70;58.60
12164;DHT22;6145;50.192;10.064;2022-08-27T13:04:02;26.70;58.60
12164;DHT22;6145;50.192;10.064;2022-08-27T13:06:31;26.80;58.60
12164;DHT22;6145;50.192;10.064;2022-08-27T13:08:59;26.80;58.60
12164;DHT22;6145;50.192;10.064;2022-08-27T13:11:30;26.90;58.40
12164;DHT22;6145;50.192;10.064;2022-08-27T13:14:09;26.90;58.30
12164;DHT22;6145;50.192;10.064;2022-08-27T13:16:38;26.90;58.00
12164;DHT22;6145;50.192;10.064;2022-08-27T13:19:14;26.90;58.10
12164;DHT22;6145;50.192;10.064;2022-08-27T13:21:46;26.90;57.90
12164;DHT22;6145;50.192;10.064;2022-08-27T13:24:19;26.90;58.00
12164;DHT22;6145;50.192;10.064;2022-08-27T13:26:51;26.90;58.00
12164;DHT22;6145;50.192;10.064;2022-08-27T13:29:19;26.90;58.00
12164;DHT22;6145;50.192;10.064;2022-08-27T13:31:46;26.90;58.00
12164;DHT22;6145;50.192;10.064;2022-08-27T13:34:17;26.80;58.00
12164;DHT22;6145;50.192;10.064;2022-08-27T13:36:55;26.80;57.70
12164;DHT22;6145;50.192;10.064;2022-08-27T13:39:23;26.80;57.60
12164;DHT22;6145;50.192;10.064;2022-08-27T13:41:51;26.80;57.80
12164;DHT22;6145;50.192;10.064;2022-08-27T13:44:21;26.80;57.80
12164;DHT22;6145;50.192;10.064;2022-08-27T13:46:52;26.80;57.80
12164;DHT22;6145;50.192;10.064;2022-08-27T13:49:21;26.80;57.60
12164;DHT22;6145;50.192;10.064;2022-08-27T13:51:56;26.80;57.60
12164;DHT22;6145;50.192;10.064;2022-08-27T13:54:28;26.80;57.80
12164;DHT22;6145;50.192;10.064;2022-08-27T13:57:03;26.80;57.70
12164;DHT22;6145;50.192;10.064;2022-08-27T13:59:34;26.70;57.70
12164;DHT22;6145;50.192;10.064;2022-08-27T14:02:14;26.70;57.60
12164;DHT22;6145;50.192;10.064;2022-08-27T14:04:45;26.70;57.70
12164;DHT22;6145;50.192;10.064;2022-08-27T14:07:15;26.80;57.80
12164;DHT22;6145;50.192;10.064;2022-08-27T14:09:49;26.70;57.80
12164;DHT22;6145;50.192;10.064;2022-08-27T14:12:24;26.70;57.80
12164;DHT22;6145;50.192;10.064;2022-08-27T14:14:52;26.70;57.80
12164;DHT22;6145;50.192;10.064;2022-08-27T14:17:23;26.70;57.80
12164;DHT22;6145;50.192;10.064;2022-08-27T14:19:51;26.70;57.90
12164;DHT22;6145;50.192;10.064;2022-08-27T14:22:17;26.70;58.00
12164;DHT22;6145;50.192;10.064;2022-08-27T14:24:44;26.70;58.10
12164;DHT22;6145;50.192;10.064;2022-08-27T14:27:13;26.70;58.20
12164;DHT22;6145;50.192;10.064;2022-08-27T14:29:42;26.70;57.90
12164;DHT22;6145;50.192;10.064;2022-08-27T14:32:09;26.60;57.80
12164;DHT22;6145;50.192;10.064;2022-08-27T14:34:36;26.60;57.80
12164;DHT22;6145;50.192;10.064;2022-08-27T14:37:03;26.60;57.90
12164;DHT22;6145;50.192;10.064;2022-08-27T14:39:30;26.50;58.00
12164;DHT22;6145;50.192;10.064;2022-08-27T14:41:56;26.50;58.10
12164;DHT22;6145;50.192;10.064;2022-08-27T14:44:23;26.50;58.20
12164;DHT22;6145;50.192;10.064;2022-08-27T14:46:52;26.50;58.30
12164;DHT22;6145;50.192;10.064;2022-08-27T14:49:26;26.40;58.20
12164;DHT22;6145;50.192;10.064;2022-08-27T14:51:53;26.40;58.30
12164;DHT22;6145;50.192;10.064;2022-08-27T14:54:20;26.30;58.30
12164;DHT22;6145;50.192;10.064;2022-08-27T14:56:47;26.30;58.40
12164;DHT22;6145;50.192;10.064;2022-08-27T14:59:14;26.30;58.70
12164;DHT22;6145;50.192;10.064;2022-08-27T15:01:41;26.30;58.80
12164;DHT22;6145;50.192;10.064;2022-08-27T15:04:10;26.20;58.70
12164;DHT22;6145;50.192;10.064;2022-08-27T15:06:37;26.20;58.60
12164;DHT22;6145;50.192;10.064;2022-08-27T15:09:04;26.10;58.60
12164;DHT22;6145;50.192;10.064;2022-08-27T15:11:33;26.10;58.60
12164;DHT22;6145;50.192;10.064;2022-08-27T15:14:03;26.10;58.60
12164;DHT22;6145;50.192;10.064;2022-08-27T15:16:31;26.10;58.70
12164;DHT22;6145;50.192;10.064;2022-08-27T15:18:59;26.10;58.80
12164;DHT22;6145;50.192;10.064;2022-08-27T15:21:28;26.00;58.80
12164;DHT22;6145;50.192;10.064;2022-08-27T15:23:58;26.00;58.90
12164;DHT22;6145;50.192;10.064;2022-08-27T15:26:25;26.00;59.00
12164;DHT22;6145;50.192;10.064;2022-08-27T15:28:52;25.90;59.00
12164;DHT22;6145;50.192;10.064;2022-08-27T15:31:19;25.90;59.00
12164;DHT22;6145;50.192;10.064;2022-08-27T15:33:46;25.90;59.20
12164;DHT22;6145;50.192;10.064;2022-08-27T15:36:13;25.90;59.40
12164;DHT22;6145;50.192;10.064;2022-08-27T15:38:41;25.90;59.30
12164;DHT22;6145;50.192;10.064;2022-08-27T15:41:09;25.90;59.30
12164;DHT22;6145;50.192;10.064;2022-08-27T15:43:36;25.90;59.20
12164;DHT22;6145;50.192;10.064;2022-08-27T15:46:04;25.80;59.20
12164;DHT22;6145;50.192;10.064;2022-08-27T15:48:30;25.80;59.10
12164;DHT22;6145;50.192;10.064;2022-08-27T15:50:59;25.80;59.10